sensor_id;sensor_type;location;lat;lon;timestamp;pressure;altitude;pressure_sealevel;temperature;humidity
4814;BME280;15375;48.540;9.268;2023-04-21T00:00:31;96944.25;;;5.57;100.00
4814;BME280;15375;48.540;9.268;2023-04-21T00:02:57;96963.97;;;5.57;100.00
4814;BME280;15375;48.540;9.268;2023-04-21T00:05:23;96974.78;;;5.57;100.00
4814;BME280;15375;48.540;9.268;2023-04-21T00:07:48;96971.72;;;5.55;100.00
4814;BME280;15375;48.540;9.268;2023-04-21T00:10:13;96905.44;;;5.12;100.00
4814;BME280;15375;48.540;9.268;2023-04-21T00:12:39;96949.38;;;5.37;100.00
4814;BME280;15375;48.540;9.268;2023-04-21T00:15:06;96977.13;;;5.55;100.00
4814;BME280;15375;48.540;9.268;2023-04-21T00:17:31;96969.44;;;5.40;100.00
4814;BME280;15375;48.540;9.268;2023-04-21T00:19:56;96924.34;;;5.12;100.00
4814;BME280;15375;48.540;9.268;2023-04-21T00:22:22;96952.50;;;5.22;100.00
4814;BME280;15375;48.540;9.268;2023-04-21T00:24:48;96909.38;;;4.93;100.00
4814;BME280;15375;48.540;9.268;2023-04-21T00:27:13;96937.13;;;5.04;100.00
4814;BME280;15375;48.540;9.268;2023-04-21T00:29:39;96947.94;;;5.08;100.00
4814;BME280;15375;48.540;9.268;2023-04-21T00:32:05;96943.31;;;4.98;100.00
4814;BME280;15375;48.540;9.268;2023-04-21T00:34:34;96946.41;;;5.03;100.00
4814;BME280;15375;48.540;9.268;2023-04-21T00:36:59;96919.41;;;4.86;100.00
4814;BME280;15375;48.540;9.268;2023-04-21T00:39:24;96890.88;;;4.64;100.00
4814;BME280;15375;48.540;9.268;2023-04-21T00:41:50;96928.66;;;4.92;100.00
4814;BME280;15375;48.540;9.268;2023-04-21T00:44:15;96949.88;;;5.00;100.00
4814;BME280;15375;48.540;9.268;2023-04-21T00:46:41;96910.97;;;4.73;100.00
4814;BME280;15375;48.540;9.268;2023-04-21T00:49:07;96910.19;;;4.69;100.00
4814;BME280;15375;48.540;9.268;2023-04-21T00:51:34;96917.91;;;4.64;100.00
4814;BME280;15375;48.540;9.268;2023-04-21T00:54:03;96925.63;;;4.72;100.00
4814;BME280;15375;48.540;9.268;2023-04-21T00:56:30;96924.06;;;4.64;100.00
4814;BME280;15375;48.540;9.268;2023-04-21T00:58:57;96906.72;;;4.51;100.00
4814;BME280;15375;48.540;9.268;2023-04-21T01:01:23;96887.09;;;4.29;100.00
4814;BME280;15375;48.540;9.268;2023-04-21T01:03:49;96939.53;;;4.53;100.00
4814;BME280;15375;48.540;9.268;2023-04-21T01:06:16;96895.94;;;4.26;100.00
4814;BME280;15375;48.540;9.268;2023-04-21T01:08:42;96910.63;;;4.32;100.00
4814;BME280;15375;48.540;9.268;2023-04-21T01:11:09;96909.84;;;4.18;100.00
4814;BME280;15375;48.540;9.268;2023-04-21T01:13:35;96906.75;;;4.05;100.00
4814;BME280;15375;48.540;9.268;2023-04-21T01:16:01;96913.31;;;4.04;100.00
4814;BME280;15375;48.540;9.268;2023-04-21T01:18:26;96912.53;;;3.97;100.00
4814;BME280;15375;48.540;9.268;2023-04-21T01:20:52;96882.03;;;3.71;100.00
4814;BME280;15375;48.540;9.268;2023-04-21T01:23:17;96907.50;;;3.77;100.00
4814;BME280;15375;48.540;9.268;2023-04-21T01:25:43;96905.19;;;3.72;100.00
4814;BME280;15375;48.540;9.268;2023-04-21T01:28:08;96910.16;;;3.67;100.00
4814;BME280;15375;48.540;9.268;2023-04-21T01:30:33;96912.06;;;3.63;100.00
4814;BME280;15375;48.540;9.268;2023-04-21T01:32:59;96895.47;;;3.47;100.00
4814;BME280;15375;48.540;9.268;2023-04-21T01:35:24;96922.47;;;3.68;100.00
4814;BME280;15375;48.540;9.268;2023-04-21T01:37:50;96873.84;;;3.26;100.00
4814;BME280;15375;48.540;9.268;2023-04-21T01:40:15;96901.63;;;3.37;100.00
4814;BME280;15375;48.540;9.268;2023-04-21T01:42:41;96908.16;;;3.39;100.00
4814;BME280;15375;48.540;9.268;2023-04-21T01:45:08;96907.38;;;3.39;100.00
4814;BME280;15375;48.540;9.268;2023-04-21T01:47:33;96888.13;;;3.30;100.00
4814;BME280;15375;48.540;9.268;2023-04-21T01:49:59;96925.16;;;3.54;100.00
4814;BME280;15375;48.540;9.268;2023-04-21T01:52:24;96912.78;;;3.39;100.00
4814;BME280;15375;48.540;9.268;2023-04-21T01:54:50;96864.91;;;3.00;100.00
4814;BME280;15375;48.540;9.268;2023-04-21T01:57:16;96877.63;;;3.03;100.00
4814;BME280;15375;48.540;9.268;2023-04-21T01:59:42;96901.13;;;3.13;100.00
4814;BME280;15375;48.540;9.268;2023-04-21T02:02:07;96842.09;;;2.73;100.00
4814;BME280;15375;48.540;9.268;2023-04-21T02:04:34;96932.00;;;3.30;100.00
4814;BME280;15375;48.540;9.268;2023-04-21T02:07:00;96821.28;;;2.63;100.00
4814;BME280;15375;48.540;9.268;2023-04-21T02:09:25;96886.06;;;2.98;100.00
4814;BME280;15375;48.540;9.268;2023-04-21T02:11:51;96835.38;;;2.39;100.00
4814;BME280;15375;48.540;9.268;2023-04-21T02:14:18;96896.75;;;2.81;100.00
4814;BME280;15375;48.540;9.268;2023-04-21T02:16:44;96920.31;;;2.94;100.00
4814;BME280;15375;48.540;9.268;2023-04-21T02:19:09;96908.66;;;2.80;100.00
4814;BME280;15375;48.540;9.268;2023-04-21T02:21:35;96931.81;;;2.91;100.00
4814;BME280;15375;48.540;9.268;2023-04-21T02:24:00;96915.63;;;2.84;100.00
4814;BME280;15375;48.540;9.268;2023-04-21T02:26:25;96920.22;;;2.77;100.00
4814;BME280;15375;48.540;9.268;2023-04-21T02:28:51;96873.81;;;2.36;100.00
4814;BME280;15375;48.540;9.268;2023-04-21T02:31:17;96946.72;;;2.75;100.00
4814;BME280;15375;48.540;9.268;2023-04-21T02:33:43;96895.63;;;2.27;100.00
4814;BME280;15375;48.540;9.268;2023-04-21T02:36:09;96952.84;;;2.68;100.00
4814;BME280;15375;48.540;9.268;2023-04-21T02:38:34;96931.63;;;2.56;100.00
4814;BME280;15375;48.540;9.268;2023-04-21T02:41:00;96919.69;;;2.57;100.00
4814;BME280;15375;48.540;9.268;2023-04-21T02:43:25;96934.03;;;2.72;100.00
4814;BME280;15375;48.540;9.268;2023-04-21T02:45:51;96895.63;;;2.27;100.00
4814;BME280;15375;48.540;9.268;2023-04-21T02:48:16;96927.28;;;2.41;100.00
4814;BME280;15375;48.540;9.268;2023-04-21T02:50:50;96875.91;;;2.09;100.00
4814;BME280;15375;48.540;9.268;2023-04-21T02:53:18;96880.19;;;2.14;100.00
4814;BME280;15375;48.540;9.268;2023-04-21T02:55:43;96900.31;;;2.34;100.00
4814;BME280;15375;48.540;9.268;2023-04-21T02:58:08;96886.09;;;2.37;100.00
4814;BME280;15375;48.540;9.268;2023-04-21T03:00:34;96856.31;;;2.09;100.00
4814;BME280;15375;48.540;9.268;2023-04-21T03:02:59;96922.38;;;2.57;100.00
4814;BME280;15375;48.540;9.268;2023-04-21T03:05:25;96915.00;;;2.43;100.00
4814;BME280;15375;48.540;9.268;2023-04-21T03:07:51;96928.84;;;2.45;100.00
4814;BME280;15375;48.540;9.268;2023-04-21T03:10:16;96892.13;;;2.20;100.00
4814;BME280;15375;48.540;9.268;2023-04-21T03:12:41;96928.09;;;2.52;100.00
4814;BME280;15375;48.540;9.268;2023-04-21T03:15:07;96928.53;;;2.54;100.00
4814;BME280;15375;48.540;9.268;2023-04-21T03:17:32;96899.56;;;2.37;100.00
4814;BME280;15375;48.540;9.268;2023-04-21T03:19:58;96904.94;;;2.37;100.00
4814;BME280;15375;48.540;9.268;2023-04-21T03:22:23;96890.16;;;2.13;100.00
4814;BME280;15375;48.540;9.268;2023-04-21T03:24:49;96895.94;;;2.15;100.00
4814;BME280;15375;48.540;9.268;2023-04-21T03:27:14;96927.25;;;2.37;100.00
4814;BME280;15375;48.540;9.268;2023-04-21T03:29:39;96900.94;;;2.17;100.00
4814;BME280;15375;48.540;9.268;2023-04-21T03:32:05;96899.00;;;2.14;100.00
4814;BME280;15375;48.540;9.268;2023-04-21T03:34:30;96937.31;;;2.44;100.00
4814;BME280;15375;48.540;9.268;2023-04-21T03:36:56;96914.91;;;2.33;100.00
4814;BME280;15375;48.540;9.268;2023-04-21T03:39:21;96915.69;;;2.37;100.00
4814;BME280;15375;48.540;9.268;2023-04-21T03:41:46;96888.72;;;2.26;100.00
4814;BME280;15375;48.540;9.268;2023-04-21T03:44:12;96868.25;;;2.15;100.00
4814;BME280;15375;48.540;9.268;2023-04-21T03:46:37;96913.44;;;2.42;100.00
4814;BME280;15375;48.540;9.268;2023-04-21T03:49:03;96901.84;;;2.31;100.00
4814;BME280;15375;48.540;9.268;2023-04-21T03:51:28;96918.47;;;2.47;100.00
4814;BME280;15375;48.540;9.268;2023-04-21T03:53:53;96926.63;;;2.58;100.00
4814;BME280;15375;48.540;9.268;2023-04-21T03:56:19;96912.38;;;2.57;100.00
4814;BME280;15375;48.540;9.268;2023-04-21T03:58:44;96888.13;;;2.50;100.00
4814;BME280;15375;48.540;9.268;2023-04-21T04:01:10;96847.94;;;2.21;100.00
4814;BME280;15375;48.540;9.268;2023-04-21T04:03:35;96908.56;;;2.62;100.00
4814;BME280;15375;48.540;9.268;2023-04-21T04:06:00;96947.56;;;2.86;100.00
4814;BME280;15375;48.540;9.268;2023-04-21T04:08:28;96926.66;;;2.62;100.00
4814;BME280;15375;48.540;9.268;2023-04-21T04:10:53;96945.91;;;2.67;100.00
4814;BME280;15375;48.540;9.268;2023-04-21T04:13:19;96911.22;;;2.55;100.00
4814;BME280;15375;48.540;9.268;2023-04-21T04:15:46;96840.19;;;2.12;100.00
4814;BME280;15375;48.540;9.268;2023-04-21T04:18:12;96886.09;;;2.37;100.00
4814;BME280;15375;48.540;9.268;2023-04-21T04:20:37;96933.56;;;2.63;100.00
4814;BME280;15375;48.540;9.268;2023-04-21T04:23:03;96930.44;;;2.57;100.00
4814;BME280;15375;48.540;9.268;2023-04-21T04:25:28;96917.28;;;2.45;100.00
4814;BME280;15375;48.540;9.268;2023-04-21T04:27:53;96907.22;;;2.35;100.00
4814;BME280;15375;48.540;9.268;2023-04-21T04:30:19;96870.94;;;2.15;100.00
4814;BME280;15375;48.540;9.268;2023-04-21T04:32:45;96921.16;;;2.44;100.00
4814;BME280;15375;48.540;9.268;2023-04-21T04:35:11;96906.53;;;2.45;100.00
4814;BME280;15375;48.540;9.268;2023-04-21T04:37:38;96865.69;;;2.32;100.00
4814;BME280;15375;48.540;9.268;2023-04-21T04:40:04;96801.72;;;2.05;100.00
4814;BME280;15375;48.540;9.268;2023-04-21T04:42:31;96909.06;;;2.78;100.00
4814;BME280;15375;48.540;9.268;2023-04-21T04:44:57;96893.56;;;2.65;100.00
4814;BME280;15375;48.540;9.268;2023-04-21T04:47:23;96893.56;;;2.61;100.00
4814;BME280;15375;48.540;9.268;2023-04-21T04:49:49;96930.66;;;2.92;100.00
4814;BME280;15375;48.540;9.268;2023-04-21T04:52:14;96913.34;;;2.86;100.00
4814;BME280;15375;48.540;9.268;2023-04-21T04:54:40;96909.78;;;2.75;100.00
4814;BME280;15375;48.540;9.268;2023-04-21T04:57:05;96960.25;;;2.85;100.00
4814;BME280;15375;48.540;9.268;2023-04-21T04:59:31;96900.38;;;2.44;100.00
4814;BME280;15375;48.540;9.268;2023-04-21T05:01:56;96954.25;;;2.48;100.00
4814;BME280;15375;48.540;9.268;2023-04-21T05:04:22;96937.16;;;2.26;100.00
4814;BME280;15375;48.540;9.268;2023-04-21T05:06:47;96934.03;;;2.21;100.00
4814;BME280;15375;48.540;9.268;2023-04-21T05:09:13;96941.75;;;2.26;100.00
4814;BME280;15375;48.540;9.268;2023-04-21T05:11:38;96930.25;;;2.29;100.00
4814;BME280;15375;48.540;9.268;2023-04-21T05:14:03;96933.69;;;2.26;100.00
4814;BME280;15375;48.540;9.268;2023-04-21T05:16:29;96922.16;;;2.25;100.00
4814;BME280;15375;48.540;9.268;2023-04-21T05:18:54;96935.78;;;2.46;100.00
4814;BME280;15375;48.540;9.268;2023-04-21T05:21:24;96938.06;;;2.44;100.00
4814;BME280;15375;48.540;9.268;2023-04-21T05:23:52;96952.81;;;2.65;100.00
4814;BME280;15375;48.540;9.268;2023-04-21T05:26:18;96958.88;;;2.54;100.00
4814;BME280;15375;48.540;9.268;2023-04-21T05:28:43;96917.25;;;2.38;100.00
4814;BME280;15375;48.540;9.268;2023-04-21T05:31:08;96951.31;;;2.71;100.00
4814;BME280;15375;48.540;9.268;2023-04-21T05:33:34;96959.13;;;2.90;100.00
4814;BME280;15375;48.540;9.268;2023-04-21T05:35:59;96933.72;;;2.84;100.00
4814;BME280;15375;48.540;9.268;2023-04-21T05:38:24;96902.44;;;2.65;100.00
4814;BME280;15375;48.540;9.268;2023-04-21T05:40:54;96964.25;;;3.12;100.00
4814;BME280;15375;48.540;9.268;2023-04-21T05:43:20;96939.59;;;3.10;100.00
4814;BME280;15375;48.540;9.268;2023-04-21T05:45:47;96914.59;;;3.10;100.00
4814;BME280;15375;48.540;9.268;2023-04-21T05:48:12;96930.47;;;3.33;100.00
4814;BME280;15375;48.540;9.268;2023-04-21T05:50:38;96905.41;;;3.21;100.00
4814;BME280;15375;48.540;9.268;2023-04-21T05:53:03;96931.63;;;3.32;100.00
4814;BME280;15375;48.540;9.268;2023-04-21T05:55:28;96856.78;;;2.90;100.00
4814;BME280;15375;48.540;9.268;2023-04-21T05:57:54;96905.44;;;3.29;100.00
4814;BME280;15375;48.540;9.268;2023-04-21T06:00:19;96901.63;;;3.37;100.00
4814;BME280;15375;48.540;9.268;2023-04-21T06:02:45;96924.41;;;3.64;100.00
4814;BME280;15375;48.540;9.268;2023-04-21T06:05:10;96945.63;;;3.72;100.00
4814;BME280;15375;48.540;9.268;2023-04-21T06:07:35;96973.03;;;3.92;100.00
4814;BME280;15375;48.540;9.268;2023-04-21T06:10:02;96894.31;;;3.41;100.00
4814;BME280;15375;48.540;9.268;2023-04-21T06:12:28;96878.88;;;3.27;100.00
4814;BME280;15375;48.540;9.268;2023-04-21T06:14:53;96944.13;;;4.03;100.00
4814;BME280;15375;48.540;9.268;2023-04-21T06:17:22;96946.84;;;4.24;100.00
4814;BME280;15375;48.540;9.268;2023-04-21T06:19:47;96925.66;;;4.19;100.00
4814;BME280;15375;48.540;9.268;2023-04-21T06:22:20;96949.56;;;4.42;100.00
4814;BME280;15375;48.540;9.268;2023-04-21T06:24:45;96957.28;;;4.29;100.00
4814;BME280;15375;48.540;9.268;2023-04-21T06:27:11;96933.72;;;4.16;100.00
4814;BME280;15375;48.540;9.268;2023-04-21T06:29:37;96951.88;;;4.43;100.00
4814;BME280;15375;48.540;9.268;2023-04-21T06:32:02;96916.78;;;4.29;100.00
4814;BME280;15375;48.540;9.268;2023-04-21T06:34:28;96940.69;;;4.41;100.00
4814;BME280;15375;48.540;9.268;2023-04-21T06:36:53;96897.09;;;3.90;100.00
4814;BME280;15375;48.540;9.268;2023-04-21T06:39:19;96946.84;;;4.14;100.00
4814;BME280;15375;48.540;9.268;2023-04-21T06:41:44;96900.56;;;3.94;100.00
4814;BME280;15375;48.540;9.268;2023-04-21T06:44:10;96934.91;;;4.25;100.00
4814;BME280;15375;48.540;9.268;2023-04-21T06:46:41;96951.09;;;4.46;100.00
4814;BME280;15375;48.540;9.268;2023-04-21T06:49:09;96936.44;;;4.47;100.00
4814;BME280;15375;48.540;9.268;2023-04-21T06:51:36;96938.72;;;4.74;100.00
4814;BME280;15375;48.540;9.268;2023-04-21T06:54:02;96953.38;;;4.87;100.00
4814;BME280;15375;48.540;9.268;2023-04-21T06:56:28;96956.44;;;4.99;100.00
4814;BME280;15375;48.540;9.268;2023-04-21T06:58:54;96933.28;;;4.91;100.00
4814;BME280;15375;48.540;9.268;2023-04-21T07:01:20;96932.13;;;5.03;100.00
4814;BME280;15375;48.540;9.268;2023-04-21T07:03:45;96927.09;;;5.05;100.00
4814;BME280;15375;48.540;9.268;2023-04-21T07:06:10;96930.94;;;5.11;100.00
4814;BME280;15375;48.540;9.268;2023-04-21T07:08:36;96909.38;;;4.90;100.00
4814;BME280;15375;48.540;9.268;2023-04-21T07:11:02;96919.31;;;5.14;100.00
4814;BME280;15375;48.540;9.268;2023-04-21T07:13:27;96959.44;;;5.33;100.00
4814;BME280;15375;48.540;9.268;2023-04-21T07:15:53;96927.41;;;5.21;100.00
4814;BME280;15375;48.540;9.268;2023-04-21T07:18:18;96903.59;;;4.84;100.00
4814;BME280;15375;48.540;9.268;2023-04-21T07:20:44;96926.31;;;5.08;100.00
4814;BME280;15375;48.540;9.268;2023-04-21T07:23:09;96917.63;;;5.52;100.00
4814;BME280;15375;48.540;9.268;2023-04-21T07:25:35;96956.84;;;5.99;100.00
4814;BME280;15375;48.540;9.268;2023-04-21T07:28:01;96947.81;;;6.16;100.00
4814;BME280;15375;48.540;9.268;2023-04-21T07:30:30;96927.03;;;6.54;100.00
4814;BME280;15375;48.540;9.268;2023-04-21T07:32:56;96915.84;;;6.48;100.00
4814;BME280;15375;48.540;9.268;2023-04-21T07:35:22;96944.41;;;6.08;100.00
4814;BME280;15375;48.540;9.268;2023-04-21T07:37:47;96917.69;;;6.07;100.00
4814;BME280;15375;48.540;9.268;2023-04-21T07:40:13;96928.22;;;5.94;100.00
4814;BME280;15375;48.540;9.268;2023-04-21T07:42:38;96956.50;;;5.90;100.00
4814;BME280;15375;48.540;9.268;2023-04-21T07:45:04;96956.13;;;5.80;100.00
4814;BME280;15375;48.540;9.268;2023-04-21T07:47:30;96928.47;;;5.45;100.00
4814;BME280;15375;48.540;9.268;2023-04-21T07:49:55;96907.75;;;5.10;100.00
4814;BME280;15375;48.540;9.268;2023-04-21T07:52:21;96937.78;;;5.37;100.00
4814;BME280;15375;48.540;9.268;2023-04-21T07:54:46;96933.09;;;5.44;100.00
4814;BME280;15375;48.540;9.268;2023-04-21T07:57:12;96908.41;;;5.39;100.00
4814;BME280;15375;48.540;9.268;2023-04-21T07:59:37;96923.34;;;5.64;100.00
4814;BME280;15375;48.540;9.268;2023-04-21T08:02:02;96897.44;;;5.67;100.00
4814;BME280;15375;48.540;9.268;2023-04-21T08:04:28;96902.34;;;5.90;100.00
4814;BME280;15375;48.540;9.268;2023-04-21T08:06:53;96926.34;;;6.42;100.00
4814;BME280;15375;48.540;9.268;2023-04-21T08:09:18;96908.06;;;6.94;100.00
4814;BME280;15375;48.540;9.268;2023-04-21T08:11:44;96899.53;;;7.30;100.00
4814;BME280;15375;48.540;9.268;2023-04-21T08:14:11;96915.47;;;7.85;100.00
4814;BME280;15375;48.540;9.268;2023-04-21T08:16:37;96922.66;;;8.71;100.00
4814;BME280;15375;48.540;9.268;2023-04-21T08:19:03;96927.78;;;9.32;100.00
4814;BME280;15375;48.540;9.268;2023-04-21T08:21:28;96898.09;;;9.57;100.00
4814;BME280;15375;48.540;9.268;2023-04-21T08:23:54;96899.09;;;9.83;100.00
4814;BME280;15375;48.540;9.268;2023-04-21T08:26:22;96901.19;;;10.11;100.00
4814;BME280;15375;48.540;9.268;2023-04-21T08:28:47;96910.25;;;10.40;100.00
4814;BME280;15375;48.540;9.268;2023-04-21T08:31:14;96912.56;;;10.25;98.81
4814;BME280;15375;48.540;9.268;2023-04-21T08:33:39;96901.31;;;10.40;98.06
4814;BME280;15375;48.540;9.268;2023-04-21T08:36:05;96899.81;;;11.00;97.74
4814;BME280;15375;48.540;9.268;2023-04-21T08:38:31;96910.97;;;10.44;92.81
4814;BME280;15375;48.540;9.268;2023-04-21T08:40:58;96909.13;;;10.70;95.46
4814;BME280;15375;48.540;9.268;2023-04-21T08:43:24;96879.03;;;10.89;91.42
4814;BME280;15375;48.540;9.268;2023-04-21T08:45:50;96896.44;;;10.79;91.22
4814;BME280;15375;48.540;9.268;2023-04-21T08:48:18;96883.94;;;11.65;92.12
4814;BME280;15375;48.540;9.268;2023-04-21T08:50:47;96836.22;;;11.94;84.96
4814;BME280;15375;48.540;9.268;2023-04-21T08:53:13;96863.09;;;12.21;84.58
4814;BME280;15375;48.540;9.268;2023-04-21T08:55:40;96872.38;;;12.36;82.10
4814;BME280;15375;48.540;9.268;2023-04-21T08:58:06;96859.47;;;12.37;83.57
4814;BME280;15375;48.540;9.268;2023-04-21T09:00:36;96829.44;;;11.86;83.81
4814;BME280;15375;48.540;9.268;2023-04-21T09:03:01;96836.31;;;11.91;82.01
4814;BME280;15375;48.540;9.268;2023-04-21T09:05:30;96866.56;;;12.47;85.98
4814;BME280;15375;48.540;9.268;2023-04-21T09:08:14;96869.34;;;12.81;82.19
4814;BME280;15375;48.540;9.268;2023-04-21T09:10:47;96860.84;;;12.54;78.10
4814;BME280;15375;48.540;9.268;2023-04-21T09:13:13;96861.31;;;12.87;82.38
4814;BME280;15375;48.540;9.268;2023-04-21T09:15:44;96870.28;;;13.43;79.19
4814;BME280;15375;48.540;9.268;2023-04-21T09:18:16;96882.00;;;13.96;81.96
4814;BME280;15375;48.540;9.268;2023-04-21T09:20:43;96863.56;;;13.96;74.61
4814;BME280;15375;48.540;9.268;2023-04-21T09:23:09;96870.81;;;14.21;72.51
4814;BME280;15375;48.540;9.268;2023-04-21T09:25:37;96874.63;;;13.84;74.76
4814;BME280;15375;48.540;9.268;2023-04-21T09:28:06;96830.78;;;13.84;76.84
4814;BME280;15375;48.540;9.268;2023-04-21T09:30:36;96864.50;;;14.02;76.93
4814;BME280;15375;48.540;9.268;2023-04-21T09:33:02;96839.38;;;14.04;80.21
4814;BME280;15375;48.540;9.268;2023-04-21T09:35:29;96862.41;;;14.46;77.56
4814;BME280;15375;48.540;9.268;2023-04-21T09:37:55;96866.81;;;14.53;78.86
4814;BME280;15375;48.540;9.268;2023-04-21T09:40:20;96836.81;;;14.77;78.89
4814;BME280;15375;48.540;9.268;2023-04-21T09:42:45;96860.00;;;14.57;78.97
4814;BME280;15375;48.540;9.268;2023-04-21T09:45:11;96856.94;;;14.74;73.73
4814;BME280;15375;48.540;9.268;2023-04-21T09:47:40;96846.25;;;14.76;73.58
4814;BME280;15375;48.540;9.268;2023-04-21T09:50:08;96841.69;;;14.54;76.84
4814;BME280;15375;48.540;9.268;2023-04-21T09:52:36;96845.50;;;14.66;75.07
4814;BME280;15375;48.540;9.268;2023-04-21T09:55:03;96816.66;;;14.34;76.17
4814;BME280;15375;48.540;9.268;2023-04-21T09:57:31;96847.34;;;14.60;76.52
4814;BME280;15375;48.540;9.268;2023-04-21T10:00:02;96855.09;;;14.52;79.36
4814;BME280;15375;48.540;9.268;2023-04-21T10:02:30;96842.19;;;14.80;81.18
4814;BME280;15375;48.540;9.268;2023-04-21T10:04:57;96850.09;;;14.96;74.80
4814;BME280;15375;48.540;9.268;2023-04-21T10:07:23;96849.94;;;14.82;78.19
4814;BME280;15375;48.540;9.268;2023-04-21T10:09:53;96832.88;;;14.87;80.06
4814;BME280;15375;48.540;9.268;2023-04-21T10:12:21;96837.56;;;15.41;76.00
4814;BME280;15375;48.540;9.268;2023-04-21T10:14:53;96829.88;;;16.05;73.99
4814;BME280;15375;48.540;9.268;2023-04-21T10:17:24;96820.16;;;15.94;72.92
4814;BME280;15375;48.540;9.268;2023-04-21T10:19:52;96804.63;;;15.82;71.49
4814;BME280;15375;48.540;9.268;2023-04-21T10:22:30;96811.19;;;15.76;70.75
4814;BME280;15375;48.540;9.268;2023-04-21T10:24:57;96814.13;;;15.72;71.53
4814;BME280;15375;48.540;9.268;2023-04-21T10:27:48;96827.53;;;15.79;71.00
4814;BME280;15375;48.540;9.268;2023-04-21T10:30:23;96834.16;;;15.64;72.59
4814;BME280;15375;48.540;9.268;2023-04-21T10:33:03;96825.47;;;15.65;72.33
4814;BME280;15375;48.540;9.268;2023-04-21T10:36:01;96818.16;;;15.95;70.60
4814;BME280;15375;48.540;9.268;2023-04-21T10:38:41;96829.47;;;16.30;72.79
4814;BME280;15375;48.540;9.268;2023-04-21T10:41:28;96822.56;;;16.82;69.87
4814;BME280;15375;48.540;9.268;2023-04-21T10:44:10;96813.03;;;16.68;63.94
4814;BME280;15375;48.540;9.268;2023-04-21T10:49:29;96810.97;;;16.30;67.11
4814;BME280;15375;48.540;9.268;2023-04-21T10:54:42;96815.78;;;16.12;70.60
4814;BME280;15375;48.540;9.268;2023-04-21T10:57:11;96812.16;;;16.62;71.54
4814;BME280;15375;48.540;9.268;2023-04-21T10:59:37;96786.88;;;16.87;68.92
4814;BME280;15375;48.540;9.268;2023-04-21T11:02:06;96803.63;;;17.13;71.24
4814;BME280;15375;48.540;9.268;2023-04-21T11:04:32;96790.09;;;16.86;66.28
4814;BME280;15375;48.540;9.268;2023-04-21T11:07:08;96794.16;;;16.76;69.04
4814;BME280;15375;48.540;9.268;2023-04-21T11:09:35;96785.41;;;16.77;73.05
4814;BME280;15375;48.540;9.268;2023-04-21T11:12:03;96771.63;;;16.63;71.24
4814;BME280;15375;48.540;9.268;2023-04-21T11:14:31;96758.47;;;16.34;74.32
4814;BME280;15375;48.540;9.268;2023-04-21T11:16:57;96771.56;;;16.48;77.01
4814;BME280;15375;48.540;9.268;2023-04-21T11:19:22;96788.00;;;16.81;77.19
4814;BME280;15375;48.540;9.268;2023-04-21T11:21:52;96772.63;;;16.89;68.84
4814;BME280;15375;48.540;9.268;2023-04-21T11:24:20;96766.38;;;16.88;72.02
4814;BME280;15375;48.540;9.268;2023-04-21T11:26:45;96773.31;;;16.98;71.81
4814;BME280;15375;48.540;9.268;2023-04-21T11:29:11;96742.72;;;17.11;69.70
4814;BME280;15375;48.540;9.268;2023-04-21T11:31:38;96770.38;;;17.46;67.81
4814;BME280;15375;48.540;9.268;2023-04-21T11:34:04;96762.41;;;17.33;69.92
4814;BME280;15375;48.540;9.268;2023-04-21T11:36:39;96764.88;;;17.46;69.11
4814;BME280;15375;48.540;9.268;2023-04-21T11:39:09;96757.16;;;17.50;71.58
4814;BME280;15375;48.540;9.268;2023-04-21T11:41:41;96757.84;;;17.30;68.11
4814;BME280;15375;48.540;9.268;2023-04-21T11:44:07;96756.31;;;17.58;69.59
4814;BME280;15375;48.540;9.268;2023-04-21T11:46:33;96761.16;;;17.49;68.21
4814;BME280;15375;48.540;9.268;2023-04-21T11:51:23;96749.47;;;17.39;73.47
4814;BME280;15375;48.540;9.268;2023-04-21T11:53:49;96756.22;;;17.67;70.72
4814;BME280;15375;48.540;9.268;2023-04-21T11:56:21;96754.59;;;17.75;68.95
4814;BME280;15375;48.540;9.268;2023-04-21T11:58:48;96735.88;;;17.65;69.56
4814;BME280;15375;48.540;9.268;2023-04-21T12:01:15;96760.50;;;17.68;74.11
4814;BME280;15375;48.540;9.268;2023-04-21T12:03:40;96709.53;;;17.64;74.12
4814;BME280;15375;48.540;9.268;2023-04-21T12:06:06;96757.66;;;18.12;67.33
4814;BME280;15375;48.540;9.268;2023-04-21T12:08:31;96707.66;;;18.10;66.33
4814;BME280;15375;48.540;9.268;2023-04-21T12:10:58;96741.75;;;18.62;68.00
4814;BME280;15375;48.540;9.268;2023-04-21T12:13:26;96721.91;;;18.64;66.92
4814;BME280;15375;48.540;9.268;2023-04-21T12:15:52;96686.34;;;18.11;64.29
4814;BME280;15375;48.540;9.268;2023-04-21T12:18:18;96715.34;;;18.41;67.55
4814;BME280;15375;48.540;9.268;2023-04-21T12:20:50;96729.56;;;18.74;65.84
4814;BME280;15375;48.540;9.268;2023-04-21T12:23:17;96703.69;;;18.52;62.58
4814;BME280;15375;48.540;9.268;2023-04-21T12:25:42;96731.22;;;18.66;66.66
4814;BME280;15375;48.540;9.268;2023-04-21T12:28:09;96710.78;;;18.38;70.07
4814;BME280;15375;48.540;9.268;2023-04-21T12:30:35;96695.16;;;18.50;65.62
4814;BME280;15375;48.540;9.268;2023-04-21T12:33:00;96707.13;;;18.67;63.74
4814;BME280;15375;48.540;9.268;2023-04-21T12:35:26;96695.34;;;18.92;63.49
4814;BME280;15375;48.540;9.268;2023-04-21T12:37:51;96694.56;;;18.91;61.01
4814;BME280;15375;48.540;9.268;2023-04-21T12:40:16;96676.91;;;18.83;61.74
4814;BME280;15375;48.540;9.268;2023-04-21T12:42:42;96699.97;;;19.06;61.79
4814;BME280;15375;48.540;9.268;2023-04-21T12:45:07;96705.16;;;18.93;65.07
4814;BME280;15375;48.540;9.268;2023-04-21T12:47:33;96715.88;;;18.85;66.27
4814;BME280;15375;48.540;9.268;2023-04-21T12:49:59;96678.81;;;18.72;61.52
4814;BME280;15375;48.540;9.268;2023-04-21T12:52:25;96707.16;;;18.92;63.45
4814;BME280;15375;48.540;9.268;2023-04-21T12:54:51;96695.28;;;18.86;63.99
4814;BME280;15375;48.540;9.268;2023-04-21T12:57:16;96687.03;;;18.92;61.26
4814;BME280;15375;48.540;9.268;2023-04-21T12:59:41;96694.94;;;19.04;62.82
4814;BME280;15375;48.540;9.268;2023-04-21T13:02:07;96689.69;;;18.81;61.52
4814;BME280;15375;48.540;9.268;2023-04-21T13:04:32;96676.19;;;19.14;62.75
4814;BME280;15375;48.540;9.268;2023-04-21T13:06:57;96666.78;;;19.32;63.24
4814;BME280;15375;48.540;9.268;2023-04-21T13:09:23;96669.47;;;19.52;59.24
4814;BME280;15375;48.540;9.268;2023-04-21T13:11:48;96661.91;;;19.21;61.38
4814;BME280;15375;48.540;9.268;2023-04-21T13:14:15;96679.09;;;19.31;60.28